Time;durP1;ratioP1;P1;durP2;ratioP2;P2;SDS_P1;SDS_P2;PMS_P1;PMS_P2;Temp;Humidity;BMP_temperature;BMP_pressure;BME280_temperature;BME280_humidity;BME280_pressure;Samples;Min_cycle;Max_cycle;Signal;HPM_P1;HPM_P2
2021/09/15 00:01:42;;;;;;;26.30;20.08;;;;;;;13.29;76.86;100713.00;1753501;81;21687;-76
2021/09/15 00:04:08;;;;;;;29.45;21.20;;;;;;;13.26;76.90;100716.05;1756480;80;21039;-76
2021/09/15 00:06:34;;;;;;;25.48;21.62;;;;;;;13.24;76.97;100715.37;1756353;81;21055;-76
2021/09/15 00:09:00;;;;;;;27.48;20.40;;;;;;;13.21;77.01;100710.38;1756622;80;21099;-76
2021/09/15 00:11:26;;;;;;;30.23;21.85;;;;;;;13.16;77.08;100704.71;1752066;80;21086;-76
2021/09/15 00:13:52;;;;;;;27.87;21.75;;;;;;;13.13;77.15;100697.05;1754799;81;20980;-76
2021/09/15 00:16:18;;;;;;;23.20;20.62;;;;;;;13.09;77.19;100697.57;1756639;80;21006;-76
2021/09/15 00:18:44;;;;;;;26.87;21.90;;;;;;;13.04;77.27;100695.42;1756456;81;21029;-76
2021/09/15 00:21:10;;;;;;;26.55;21.68;;;;;;;13.01;77.33;100696.62;1756558;80;21024;-76
2021/09/15 00:23:36;;;;;;;25.40;21.95;;;;;;;12.98;77.38;100697.48;1755107;81;21557;-76
2021/09/15 00:26:02;;;;;;;28.02;21.70;;;;;;;12.94;77.44;100694.83;1750694;81;20997;-76
2021/09/15 00:28:28;;;;;;;27.45;22.95;;;;;;;12.90;77.47;100697.52;1748080;81;20974;-76
2021/09/15 00:30:54;;;;;;;29.35;24.32;;;;;;;12.82;77.56;100694.39;1751024;81;21524;-76
2021/09/15 00:33:20;;;;;;;28.90;23.95;;;;;;;12.78;77.63;100693.58;1754152;81;20966;-76
2021/09/15 00:35:46;;;;;;;29.07;25.35;;;;;;;12.76;77.68;100696.95;1753495;81;21171;-76
2021/09/15 00:38:12;;;;;;;31.00;24.87;;;;;;;12.73;77.74;100697.30;1750572;81;20905;-76
2021/09/15 00:40:38;;;;;;;35.65;28.57;;;;;;;12.70;77.79;100696.33;1756574;81;20998;-76
2021/09/15 00:43:04;;;;;;;38.98;29.63;;;;;;;12.64;77.85;100687.64;1756619;81;21482;-76
2021/09/15 00:45:30;;;;;;;38.98;30.05;;;;;;;12.58;77.92;100687.84;1756549;81;21561;-76
2021/09/15 00:47:56;;;;;;;37.30;28.62;;;;;;;12.55;77.99;100688.70;1756789;81;21116;-76
2021/09/15 00:50:23;;;;;;;32.95;28.67;;;;;;;12.53;78.06;100683.52;1756550;80;20997;-76
2021/09/15 00:52:48;;;;;;;38.42;28.23;;;;;;;12.51;78.10;100678.36;1756761;80;20975;-76
2021/09/15 00:55:15;;;;;;;33.90;24.95;;;;;;;12.49;78.17;100676.34;1753346;81;21482;-76
2021/09/15 00:57:41;;;;;;;32.83;27.35;;;;;;;12.47;78.23;100678.38;1750531;82;21010;-76
2021/09/15 01:00:08;;;;;;;39.18;27.82;;;;;;;12.48;78.28;100677.87;1755729;81;21148;-75
2021/09/15 01:02:34;;;;;;;30.08;24.70;;;;;;;12.45;78.35;100680.38;1754654;81;21522;-76
2021/09/15 01:05:00;;;;;;;31.82;24.23;;;;;;;12.45;78.39;100685.72;1758661;81;21008;-76
2021/09/15 01:07:26;;;;;;;34.08;26.87;;;;;;;12.52;78.46;100685.89;1755545;80;21475;-76
2021/09/15 01:09:52;;;;;;;31.05;25.62;;;;;;;12.51;78.51;100683.70;1753160;81;20993;-76
2021/09/15 01:12:18;;;;;;;30.12;23.90;;;;;;;12.53;78.57;100677.66;1752407;81;21116;-76
2021/09/15 01:14:44;;;;;;;27.67;23.25;;;;;;;12.67;78.64;100673.91;1753167;81;20891;-76
2021/09/15 01:17:10;;;;;;;33.58;23.67;;;;;;;12.76;78.67;100679.55;1752707;81;20970;-76
2021/09/15 01:19:36;;;;;;;33.78;24.80;;;;;;;12.82;78.72;100677.50;1754912;81;20993;-76
2021/09/15 01:22:03;;;;;;;28.42;22.82;;;;;;;12.82;78.76;100682.34;1753097;80;21045;-76
2021/09/15 01:24:30;;;;;;;32.48;24.27;;;;;;;12.84;78.81;100678.17;1756407;81;21005;-76
2021/09/15 01:26:57;;;;;;;32.50;24.45;;;;;;;12.84;78.88;100681.65;1759011;81;21476;-76
2021/09/15 01:29:28;;;;;;;30.97;22.27;;;;;;;12.89;78.93;100673.09;1755219;81;20989;-76
2021/09/15 01:31:59;;;;;;;30.85;23.30;;;;;;;12.95;78.97;100672.38;1753564;81;21033;-76
2021/09/15 01:34:25;;;;;;;28.38;23.02;;;;;;;13.01;79.00;100671.69;1754280;81;21052;-76
2021/09/15 01:36:51;;;;;;;30.37;22.58;;;;;;;13.03;79.02;100666.97;1753018;81;21098;-76
2021/09/15 01:39:17;;;;;;;33.53;23.12;;;;;;;13.03;79.07;100673.16;1753311;80;21025;-76
2021/09/15 01:41:43;;;;;;;29.15;22.25;;;;;;;13.04;79.09;100672.66;1752975;81;21026;-76
2021/09/15 01:44:09;;;;;;;29.07;22.37;;;;;;;13.06;79.12;100675.14;1758819;81;20960;-76
2021/09/15 01:46:35;;;;;;;30.35;23.25;;;;;;;13.03;79.12;100681.19;1758668;80;20988;-76
2021/09/15 01:49:01;;;;;;;28.90;23.00;;;;;;;12.99;79.17;100683.06;1758975;81;21665;-76
2021/09/15 01:51:27;;;;;;;28.95;22.65;;;;;;;12.94;79.21;100681.44;1758751;80;21004;-76
2021/09/15 01:53:53;;;;;;;32.73;23.42;;;;;;;12.90;79.24;100677.45;1758997;80;21000;-76
2021/09/15 01:56:19;;;;;;;31.30;22.05;;;;;;;12.85;79.27;100674.45;1753144;81;20967;-76
2021/09/15 01:58:45;;;;;;;27.77;22.13;;;;;;;12.84;79.31;100679.51;1752706;81;20886;-76
2021/09/15 02:01:11;;;;;;;26.87;21.90;;;;;;;12.81;79.33;100674.48;1755440;80;21132;-76
2021/09/15 02:03:37;;;;;;;30.27;23.98;;;;;;;12.80;79.35;100675.02;1758368;81;21036;-76
2021/09/15 02:06:03;;;;;;;28.40;23.80;;;;;;;12.76;79.37;100676.38;1759059;80;20881;-76
2021/09/15 02:08:29;;;;;;;30.60;23.83;;;;;;;12.72;79.38;100673.72;1756064;81;20934;-76
2021/09/15 02:10:55;;;;;;;27.90;23.90;;;;;;;12.70;79.43;100676.25;1753263;81;21069;-76
2021/09/15 02:13:21;;;;;;;32.65;23.92;;;;;;;12.66;79.46;100678.95;1753107;81;21151;-76
2021/09/15 02:15:47;;;;;;;31.87;23.85;;;;;;;12.59;79.48;100676.65;1755989;81;20972;-76
2021/09/15 02:18:13;;;;;;;32.67;23.45;;;;;;;12.50;79.52;100676.69;1753989;81;20962;-76
2021/09/15 02:20:39;;;;;;;34.33;25.30;;;;;;;12.44;79.56;100677.89;1752593;81;21537;-76
2021/09/15 02:23:05;;;;;;;33.78;24.75;;;;;;;12.40;79.60;100670.72;1753041;81;21049;-76
2021/09/15 02:25:31;;;;;;;30.97;25.23;;;;;;;12.39;79.64;100678.41;1752891;80;21148;-76
2021/09/15 02:27:57;;;;;;;30.62;24.72;;;;;;;12.35;79.67;100670.40;1752818;81;21029;-76
2021/09/15 02:30:23;;;;;;;31.68;24.12;;;;;;;12.32;79.70;100662.73;1754397;81;21085;-76
2021/09/15 02:32:49;;;;;;;29.12;24.43;;;;;;;12.25;79.71;100659.09;1757668;81;21031;-76
2021/09/15 02:35:15;;;;;;;29.67;23.12;;;;;;;12.20;79.78;100655.28;1757583;81;20940;-76
2021/09/15 02:37:41;;;;;;;36.28;25.50;;;;;;;12.16;79.80;100653.46;1752995;81;21066;-76
2021/09/15 02:40:08;;;;;;;35.50;26.07;;;;;;;12.17;79.83;100656.47;1756534;81;21048;-76
2021/09/15 02:42:34;;;;;;;36.35;25.60;;;;;;;12.21;79.84;100655.09;1758988;81;21044;-76
2021/09/15 02:45:00;;;;;;;32.10;26.25;;;;;;;12.23;79.88;100647.75;1758691;80;20961;-76
2021/09/15 02:47:26;;;;;;;36.73;27.25;;;;;;;12.25;79.92;100643.55;1758260;81;21617;-76
2021/09/15 02:49:52;;;;;;;32.95;26.02;;;;;;;12.24;79.96;100640.06;1758732;80;21630;-76
2021/09/15 02:52:18;;;;;;;33.10;25.95;;;;;;;12.29;80.01;100640.85;1754193;80;20982;-76
2021/09/15 02:54:44;;;;;;;38.13;27.22;;;;;;;12.29;80.04;100640.35;1753027;80;20950;-76
2021/09/15 02:57:10;;;;;;;35.75;26.93;;;;;;;12.27;80.10;100638.38;1752930;81;20970;-76
2021/09/15 02:59:36;;;;;;;33.83;25.55;;;;;;;12.28;80.13;100638.67;1757848;81;21004;-76
2021/09/15 03:02:03;;;;;;;36.90;26.65;;;;;;;12.27;80.19;100642.38;1757611;80;21135;-76
2021/09/15 03:04:29;;;;;;;32.58;24.85;;;;;;;12.24;80.23;100640.06;1756845;80;21528;-76
2021/09/15 03:06:55;;;;;;;34.40;27.05;;;;;;;12.22;80.28;100638.05;1755281;80;21581;-76
2021/09/15 03:09:21;;;;;;;34.40;25.85;;;;;;;12.21;80.33;100640.38;1756198;81;20988;-76
2021/09/15 03:11:47;;;;;;;37.65;28.98;;;;;;;12.22;80.37;100646.57;1757445;80;20877;-76
2021/09/15 03:14:13;;;;;;;33.23;27.00;;;;;;;12.21;80.42;100641.72;1757234;81;20984;-76
2021/09/15 03:16:39;;;;;;;37.30;27.00;;;;;;;12.25;80.43;100637.69;1757168;80;21011;-76
2021/09/15 03:19:04;;;;;;;35.58;26.55;;;;;;;12.24;80.45;100643.23;1756260;81;20950;-76
2021/09/15 03:21:30;;;;;;;35.58;27.07;;;;;;;12.23;80.51;100642.40;1757178;81;21008;-75
2021/09/15 03:23:56;;;;;;;35.73;27.73;;;;;;;12.22;80.54;100640.72;1755560;81;20961;-76
2021/09/15 03:26:22;;;;;;;36.98;27.98;;;;;;;12.19;80.58;100640.23;1754220;81;21753;-76
2021/09/15 03:28:48;;;;;;;33.75;27.50;;;;;;;12.20;80.63;100636.06;1754057;81;21032;-76
2021/09/15 03:31:14;;;;;;;34.38;27.42;;;;;;;12.20;80.67;100636.06;1754158;81;20990;-76
2021/09/15 03:33:40;;;;;;;38.83;28.90;;;;;;;12.18;80.70;100639.90;1788265;80;20982;-76
2021/09/15 03:36:07;;;;;;;35.13;27.65;;;;;;;12.17;80.74;100640.93;1754237;81;21001;-76
2021/09/15 03:38:33;;;;;;;37.75;27.02;;;;;;;12.13;80.78;100637.77;1754174;81;21123;-76
2021/09/15 03:40:59;;;;;;;31.87;27.22;;;;;;;12.10;80.79;100636.78;1754336;81;21002;-76
2021/09/15 03:43:25;;;;;;;33.70;27.30;;;;;;;12.07;80.84;100633.09;1754110;81;21471;-76
2021/09/15 03:45:51;;;;;;;32.08;26.40;;;;;;;12.06;80.87;100636.80;1788213;80;21770;-76
2021/09/15 03:48:17;;;;;;;34.13;28.23;;;;;;;12.06;80.91;100643.98;1788066;80;20979;-76
2021/09/15 03:50:43;;;;;;;41.20;29.60;;;;;;;12.04;80.93;100648.15;1790373;79;20919;-76
2021/09/15 03:53:09;;;;;;;39.03;28.27;;;;;;;12.05;80.97;100643.64;1805329;79;20998;-76
2021/09/15 03:55:35;;;;;;;42.08;28.75;;;;;;;12.08;80.99;100637.94;1795426;79;21054;-76
2021/09/15 03:58:01;;;;;;;34.55;27.98;;;;;;;12.05;81.03;100629.77;1754203;81;20939;-76
2021/09/15 04:00:27;;;;;;;45.28;29.20;;;;;;;12.05;81.05;100627.60;1758677;80;21040;-76
2021/09/15 04:02:54;;;;;;;33.10;27.50;;;;;;;12.04;81.09;100637.45;1778782;80;40323;-76
2021/09/15 04:05:20;;;;;;;41.48;28.85;;;;;;;12.01;81.13;100619.09;1788892;79;21445;-76
2021/09/15 04:07:46;;;;;;;39.90;30.12;;;;;;;12.00;81.15;100619.59;1754705;81;21470;-76
2021/09/15 04:10:12;;;;;;;38.50;30.10;;;;;;;12.04;81.21;100616.07;1756244;81;20976;-76
2021/09/15 04:12:39;;;;;;;36.03;28.75;;;;;;;12.06;81.23;100620.77;1758523;80;21019;-76
2021/09/15 04:15:06;;;;;;;40.67;30.82;;;;;;;12.10;81.26;100616.73;1758764;81;21036;-76
2021/09/15 04:17:32;;;;;;;39.55;30.50;;;;;;;12.11;81.29;100616.20;1758401;81;21017;-76
2021/09/15 04:19:58;;;;;;;36.30;30.02;;;;;;;12.11;81.33;100615.70;1761259;80;21008;-76
2021/09/15 04:22:24;;;;;;;34.18;28.12;;;;;;;12.11;81.37;100611.69;1763341;80;20997;-76
2021/09/15 04:33:03;;;;;;;36.10;30.35;;;;;;;12.10;81.52;100591.34;1759395;80;22318;-76
2021/09/15 04:35:29;;;;;;;41.25;30.32;;;;;;;12.14;81.52;100592.63;1760011;79;21505;-76
2021/09/15 04:37:55;;;;;;;35.35;29.77;;;;;;;12.15;81.56;100585.45;1757796;80;21004;-75
2021/09/15 04:40:21;;;;;;;35.58;28.87;;;;;;;12.18;81.58;100588.60;1768824;80;21072;-75
2021/09/15 04:42:47;;;;;;;39.15;29.98;;;;;;;12.23;81.59;100588.92;1767155;80;21024;-76
2021/09/15 04:45:13;;;;;;;44.88;31.30;;;;;;;12.29;81.62;100588.20;1758916;80;21109;-76
2021/09/15 04:47:39;;;;;;;38.95;31.95;;;;;;;12.32;81.63;100581.16;1754514;81;20985;-75
2021/09/15 04:50:05;;;;;;;40.28;29.57;;;;;;;12.35;81.65;100584.81;1763968;80;20989;-76
2021/09/15 04:52:31;;;;;;;46.42;31.12;;;;;;;12.38;81.69;100589.84;1743667;80;21119;-77
2021/09/15 04:54:57;;;;;;;38.10;30.90;;;;;;;12.42;81.72;100585.77;1758817;80;21044;-78
2021/09/15 04:57:23;;;;;;;40.88;31.70;;;;;;;12.46;81.74;100591.10;1756756;81;20978;-77
2021/09/15 04:59:49;;;;;;;47.88;36.13;;;;;;;12.54;81.80;100594.23;1753163;81;21481;-76
2021/09/15 05:02:15;;;;;;;41.80;31.23;;;;;;;13.02;82.02;100591.67;1761005;80;21539;-77
2021/09/15 05:04:41;;;;;;;37.10;29.45;;;;;;;13.77;81.98;100596.95;1770518;80;21454;-75
2021/09/15 05:07:09;;;;;;;34.25;27.58;;;;;;;14.43;81.77;100595.44;1756238;80;21507;-75
2021/09/15 05:09:35;;;;;;;34.25;25.82;;;;;;;15.00;81.54;100594.54;1730695;81;21025;-75
2021/09/15 05:12:02;;;;;;;31.87;26.27;;;;;;;15.44;81.23;100598.30;1755592;80;21594;-75
2021/09/15 05:14:28;;;;;;;30.75;24.02;;;;;;;15.85;80.97;100598.36;1766339;80;21008;-75
2021/09/15 05:16:54;;;;;;;28.05;22.45;;;;;;;16.12;80.69;100588.03;1765325;80;21052;-77
2021/09/15 05:19:20;;;;;;;26.20;22.13;;;;;;;16.55;80.41;100571.59;1781857;80;20971;-77
2021/09/15 05:21:46;;;;;;;28.73;22.75;;;;;;;17.23;79.79;100596.86;1755760;81;21000;-78
2021/09/15 05:24:12;;;;;;;30.35;22.20;;;;;;;17.44;79.37;100593.11;1758898;80;21005;-77
2021/09/15 05:26:38;;;;;;;24.15;20.60;;;;;;;17.65;78.87;100592.05;1758637;81;20984;-78
2021/09/15 05:29:04;;;;;;;33.23;24.27;;;;;;;17.73;78.41;100582.39;1756056;80;21194;-78
2021/09/15 05:31:30;;;;;;;26.00;21.73;;;;;;;18.15;78.03;100586.39;1749383;81;20985;-80
2021/09/15 05:33:56;;;;;;;28.23;21.73;;;;;;;18.66;77.40;100591.73;1754667;81;21022;-79
2021/09/15 05:36:22;;;;;;;33.20;23.12;;;;;;;18.80;76.29;100589.25;1756838;81;20988;-79
2021/09/15 05:38:48;;;;;;;31.00;20.75;;;;;;;18.53;75.79;100578.32;1734883;81;21020;-79
2021/09/15 05:41:14;;;;;;;23.27;18.87;;;;;;;18.14;75.94;100586.91;1723140;83;21162;-79
2021/09/15 05:43:40;;;;;;;26.75;19.80;;;;;;;17.76;76.01;100580.10;1723139;83;20999;-79
2021/09/15 05:46:06;;;;;;;26.35;20.72;;;;;;;17.48;76.05;100581.70;1727695;81;21063;-79
2021/09/15 05:48:32;;;;;;;24.40;18.90;;;;;;;17.42;76.05;100577.63;1758449;81;20965;-79
2021/09/15 05:50:59;;;;;;;26.23;20.37;;;;;;;17.46;75.93;100575.67;1759099;80;21488;-79
2021/09/15 05:53:25;;;;;;;27.73;19.80;;;;;;;17.52;75.75;100575.36;1758797;80;21151;-79
2021/09/15 05:55:51;;;;;;;25.48;19.70;;;;;;;17.65;75.67;100569.13;1758496;80;20964;-79
2021/09/15 05:58:18;;;;;;;24.77;19.55;;;;;;;17.65;75.42;100569.13;1758636;81;20984;-79
2021/09/15 06:00:44;;;;;;;27.17;20.25;;;;;;;17.66;75.19;100560.00;1758713;80;21531;-80
2021/09/15 06:03:10;;;;;;;23.90;19.15;;;;;;;17.67;75.06;100558.42;1757743;80;20972;-79
2021/09/15 06:05:36;;;;;;;27.42;20.40;;;;;;;17.87;74.97;100559.73;1757189;80;21152;-79
2021/09/15 06:08:03;;;;;;;24.27;20.15;;;;;;;17.98;74.75;100559.03;1757129;80;21021;-79
2021/09/15 06:10:29;;;;;;;23.95;20.52;;;;;;;17.98;74.47;100548.78;1757247;81;20981;-79
2021/09/15 06:12:55;;;;;;;24.35;20.35;;;;;;;17.80;74.21;100560.27;1757128;80;21048;-79
2021/09/15 06:15:20;;;;;;;24.63;20.37;;;;;;;17.87;74.16;100563.77;1757195;81;20968;-79
2021/09/15 06:17:47;;;;;;;27.15;19.95;;;;;;;18.12;73.89;100563.33;1756546;80;21797;-79
2021/09/15 06:20:13;;;;;;;23.67;19.70;;;;;;;18.15;73.64;100568.33;1757329;80;21036;-79
2021/09/15 06:22:39;;;;;;;30.12;21.17;;;;;;;18.22;73.42;100566.42;1757118;81;21453;-79
2021/09/15 06:25:06;;;;;;;24.60;20.32;;;;;;;18.41;73.35;100569.52;1757248;81;21619;-79
2021/09/15 06:27:34;;;;;;;31.93;21.33;;;;;;;18.42;73.10;100572.53;1757182;80;21008;-79
2021/09/15 06:30:00;;;;;;;32.90;20.68;;;;;;;18.26;72.82;100570.32;1757141;81;21122;-79
2021/09/15 06:32:26;;;;;;;28.12;19.60;;;;;;;18.25;72.75;100574.09;1757255;80;21047;-79
2021/09/15 06:34:53;;;;;;;24.80;20.23;;;;;;;18.13;72.70;100572.27;1757354;80;20968;-79
2021/09/15 06:37:20;;;;;;;27.93;22.30;;;;;;;17.85;72.49;100573.42;1757297;81;20981;-79
2021/09/15 06:39:46;;;;;;;27.07;20.90;;;;;;;17.70;72.49;100576.05;1757117;81;21016;-79
2021/09/15 06:42:12;;;;;;;23.77;20.55;;;;;;;17.73;72.40;100574.30;1757267;80;21066;-79
2021/09/15 06:44:38;;;;;;;23.10;20.27;;;;;;;17.92;72.32;100572.87;1757101;80;21036;-79
2021/09/15 06:47:04;;;;;;;25.65;20.77;;;;;;;17.92;72.23;100571.52;1757252;80;20920;-79
2021/09/15 06:49:30;;;;;;;29.45;21.15;;;;;;;17.85;72.15;100568.53;1757051;81;20961;-78
2021/09/15 06:51:56;;;;;;;22.73;20.08;;;;;;;18.02;72.09;100569.71;1757364;81;21520;-79
2021/09/15 06:54:22;;;;;;;28.52;21.00;;;;;;;18.11;72.04;100567.61;1757212;81;21728;-79
2021/09/15 06:56:48;;;;;;;26.10;20.00;;;;;;;18.36;71.97;100563.96;1757026;80;20969;-79
2021/09/15 06:59:14;;;;;;;23.15;20.62;;;;;;;18.53;71.78;100560.24;1757057;81;21075;-79
2021/09/15 07:01:40;;;;;;;22.85;19.02;;;;;;;18.60;71.69;100565.60;1756866;81;21008;-78
2021/09/15 07:04:06;;;;;;;24.50;19.57;;;;;;;18.68;71.54;100560.74;1756863;80;21071;-79
2021/09/15 07:06:32;;;;;;;24.10;19.27;;;;;;;18.69;71.40;100558.87;1757120;81;21162;-79
2021/09/15 07:08:58;;;;;;;27.17;20.97;;;;;;;18.59;71.18;100554.48;1757080;80;20976;-79
2021/09/15 07:11:24;;;;;;;25.10;21.30;;;;;;;18.61;71.14;100563.22;1757331;80;21650;-79
2021/09/15 07:13:50;;;;;;;25.17;21.33;;;;;;;18.92;71.12;100567.23;1757248;80;20984;-79
2021/09/15 07:16:16;;;;;;;25.30;19.60;;;;;;;19.15;70.94;100563.39;1757180;80;21008;-79
2021/09/15 07:18:44;;;;;;;24.52;20.10;;;;;;;19.30;70.73;100558.99;1756969;80;21164;-79
2021/09/15 07:21:10;;;;;;;24.32;19.50;;;;;;;19.23;70.53;100559.06;1757127;80;21115;-79
2021/09/15 07:23:36;;;;;;;26.80;20.35;;;;;;;19.02;70.41;100559.46;1757180;80;21035;-79
2021/09/15 07:26:02;;;;;;;22.10;19.70;;;;;;;19.05;70.27;100558.18;1757294;80;20980;-79
2021/09/15 07:28:28;;;;;;;22.90;19.32;;;;;;;19.01;70.17;100563.72;1757151;80;21066;-79
2021/09/15 07:30:54;;;;;;;26.02;20.10;;;;;;;18.84;70.01;100568.33;1757013;80;21083;-79
2021/09/15 07:33:20;;;;;;;23.32;19.42;;;;;;;18.64;69.96;100577.62;1757214;80;21008;-79
2021/09/15 07:35:46;;;;;;;24.37;19.42;;;;;;;18.47;69.95;100574.05;1757169;81;20996;-79
2021/09/15 07:38:12;;;;;;;22.25;19.30;;;;;;;18.39;69.94;100575.67;1757390;80;22347;-79
2021/09/15 07:40:38;;;;;;;29.25;20.60;;;;;;;18.30;69.93;100575.60;1756975;81;21437;-79
2021/09/15 07:43:04;;;;;;;25.52;20.70;;;;;;;18.37;70.02;100576.39;1757217;80;21841;-79
2021/09/15 07:45:30;;;;;;;26.60;20.92;;;;;;;18.44;70.08;100571.78;1757008;81;20982;-79
2021/09/15 07:47:57;;;;;;;22.85;19.85;;;;;;;18.67;70.06;100569.08;1756801;81;20977;-79
2021/09/15 07:50:23;;;;;;;25.95;21.65;;;;;;;18.88;70.04;100571.42;1757192;80;21040;-78
2021/09/15 07:52:49;;;;;;;22.35;19.73;;;;;;;19.01;69.99;100563.20;1757215;81;21028;-79
2021/09/15 07:55:15;;;;;;;22.62;19.98;;;;;;;19.26;69.99;100560.48;1757260;81;21210;-79
2021/09/15 07:57:43;;;;;;;23.83;19.45;;;;;;;19.51;69.86;100559.13;1756857;80;20996;-79
2021/09/15 08:00:10;;;;;;;24.30;19.05;;;;;;;19.71;69.82;100566.50;1756660;80;21023;-79
2021/09/15 08:02:36;;;;;;;20.00;17.90;;;;;;;19.91;69.61;100564.41;1756999;80;21500;-78
2021/09/15 08:05:03;;;;;;;22.82;17.95;;;;;;;20.15;69.46;100567.53;1757153;80;21579;-79
2021/09/15 08:07:29;;;;;;;19.32;16.93;;;;;;;20.40;69.29;100561.50;1757033;81;21751;-79
2021/09/15 08:09:55;;;;;;;22.25;16.93;;;;;;;20.58;69.01;100563.85;1757023;80;20947;-79
2021/09/15 08:12:21;;;;;;;28.15;17.35;;;;;;;20.68;68.83;100564.11;1757003;81;20984;-79
2021/09/15 08:14:47;;;;;;;24.07;16.65;;;;;;;20.78;68.64;100557.59;1756986;81;20849;-79
2021/09/15 08:17:13;;;;;;;19.57;15.48;;;;;;;20.87;68.43;100561.60;1756781;80;21008;-79
2021/09/15 08:19:39;;;;;;;22.32;15.60;;;;;;;20.85;68.06;100565.09;1756686;81;21520;-79
2021/09/15 08:22:05;;;;;;;18.27;14.78;;;;;;;20.83;67.83;100571.25;1757046;81;21043;-79
2021/09/15 08:24:31;;;;;;;22.98;15.05;;;;;;;20.90;67.75;100576.05;1756971;80;21035;-79
2021/09/15 08:26:57;;;;;;;19.07;14.85;;;;;;;21.01;67.58;100576.59;1757041;80;20897;-79
2021/09/15 08:29:23;;;;;;;17.98;13.38;;;;;;;21.20;67.31;100577.37;1757181;80;21024;-79
2021/09/15 08:31:50;;;;;;;18.12;14.28;;;;;;;21.20;67.11;100572.77;1756992;81;21619;-79
2021/09/15 08:34:16;;;;;;;17.40;13.95;;;;;;;21.48;67.01;100573.95;1757179;81;20992;-79
2021/09/15 08:36:42;;;;;;;16.25;14.35;;;;;;;21.64;66.78;100574.59;1756619;80;21012;-79
2021/09/15 08:39:08;;;;;;;15.35;13.30;;;;;;;21.89;66.54;100565.62;1757050;81;20889;-79
2021/09/15 08:41:34;;;;;;;19.37;14.00;;;;;;;22.09;66.23;100564.73;1757027;80;21420;-79
2021/09/15 08:44:00;;;;;;;15.63;13.03;;;;;;;22.30;65.96;100562.70;1757360;81;22295;-79
2021/09/15 08:46:27;;;;;;;15.43;12.23;;;;;;;22.46;65.61;100562.97;1757042;80;21028;-79
2021/09/15 08:48:53;;;;;;;13.40;11.30;;;;;;;22.62;65.40;100563.55;1756744;81;20908;-79
2021/09/15 08:51:23;;;;;;;16.25;12.50;;;;;;;22.78;65.08;100565.49;1687254;81;21942;-79
2021/09/15 08:53:47;;;;;;;16.12;12.70;;;;;;;22.94;64.79;100561.15;1757019;80;21401;-79
2021/09/15 08:56:13;;;;;;;13.72;12.07;;;;;;;23.17;64.56;100555.53;1757207;81;22744;-79
2021/09/15 08:58:39;;;;;;;17.67;12.60;;;;;;;23.24;64.24;100558.37;1756620;81;20992;-79
2021/09/15 09:01:21;;;;;;;18.27;11.95;;;;;;;23.35;64.00;100547.92;1757219;81;21051;-79
2021/09/15 09:03:53;;;;;;;15.28;11.93;;;;;;;23.52;63.76;100551.17;1747014;81;21512;-79
2021/09/15 09:06:22;;;;;;;16.42;11.53;;;;;;;23.54;63.47;100539.51;1758486;80;20965;-79
2021/09/15 09:09:00;;;;;;;15.40;10.45;;;;;;;23.59;63.17;100538.20;1758737;80;22471;-79
2021/09/15 09:11:27;;;;;;;14.38;10.13;;;;;;;23.51;62.88;100542.70;1757933;80;21012;-79
2021/09/15 09:13:55;;;;;;;13.88;10.50;;;;;;;23.52;62.63;100543.83;1757307;80;21019;-79
2021/09/15 09:16:43;;;;;;;15.00;9.73;;;;;;;23.51;62.45;100535.90;1758948;81;21055;-79
2021/09/15 09:19:11;;;;;;;16.52;10.53;;;;;;;23.62;62.27;100543.14;1758675;81;20980;-79
2021/09/15 09:21:41;;;;;;;18.62;11.40;;;;;;;23.68;62.08;100533.98;1758690;80;21913;-79
2021/09/15 09:24:09;;;;;;;15.75;10.78;;;;;;;23.88;61.98;100531.51;1758411;81;21401;-79
2021/09/15 09:26:57;;;;;;;11.00;9.60;;;;;;;24.00;61.71;100534.91;1758860;81;21083;-79
2021/09/15 09:29:27;;;;;;;17.07;9.35;;;;;;;24.02;61.51;100520.50;1758524;80;21003;-79
2021/09/15 09:32:04;;;;;;;13.83;9.40;;;;;;;24.21;61.27;100526.45;1753337;80;21415;-79
2021/09/15 09:34:41;;;;;;;12.13;8.73;;;;;;;24.16;60.99;100528.59;1758744;81;21815;-79
2021/09/15 09:37:16;;;;;;;11.33;8.85;;;;;;;24.27;60.73;100524.91;1758543;81;21007;-79
2021/09/15 09:39:51;;;;;;;11.15;8.88;;;;;;;24.44;60.49;100530.25;1758430;80;21614;-79
2021/09/15 09:42:29;;;;;;;11.15;8.45;;;;;;;24.58;60.12;100525.20;1758534;80;21084;-79
2021/09/15 09:45:16;;;;;;;9.05;7.80;;;;;;;24.74;59.83;100521.52;1758701;81;21011;-79
2021/09/15 09:47:43;;;;;;;17.52;7.80;;;;;;;24.83;59.37;100517.27;1757990;81;21809;-79
2021/09/15 09:50:18;;;;;;;10.05;7.53;;;;;;;24.77;58.98;100508.73;1758502;80;20972;-79
2021/09/15 09:53:00;;;;;;;11.85;8.40;;;;;;;24.77;58.72;100507.38;1758708;81;21019;-79
2021/09/15 09:55:37;;;;;;;12.78;8.68;;;;;;;24.73;58.40;100508.97;1758261;80;21003;-79
2021/09/15 09:58:04;;;;;;;10.28;7.60;;;;;;;24.66;58.04;100506.47;1758170;80;21059;-79
2021/09/15 10:00:30;;;;;;;10.10;8.63;;;;;;;24.50;57.82;100503.84;1758805;81;21997;-79
2021/09/15 10:02:59;;;;;;;10.53;8.38;;;;;;;24.58;57.69;100503.38;1758188;80;21487;-78
2021/09/15 10:05:25;;;;;;;12.37;8.23;;;;;;;24.53;57.43;100504.69;1757427;80;21106;-79
2021/09/15 10:07:51;;;;;;;9.25;7.12;;;;;;;24.54;57.23;100505.80;1748150;81;20985;-79
2021/09/15 10:10:20;;;;;;;11.00;7.35;;;;;;;24.30;56.79;100499.03;1757014;81;21009;-79
2021/09/15 10:12:48;;;;;;;8.30;7.42;;;;;;;24.19;56.79;100497.27;1757087;80;21927;-79
2021/09/15 10:15:14;;;;;;;8.33;7.53;;;;;;;24.26;56.74;100500.63;1756905;80;21460;-79
2021/09/15 10:17:47;;;;;;;9.23;7.42;;;;;;;24.33;56.71;100499.34;1757250;80;21523;-79
2021/09/15 10:20:14;;;;;;;11.80;8.40;;;;;;;24.22;56.56;100496.22;1748399;80;21392;-79
2021/09/15 10:22:48;;;;;;;11.18;7.37;;;;;;;24.17;56.42;100494.79;1756818;81;21024;-79
2021/09/15 10:25:14;;;;;;;11.08;7.85;;;;;;;24.04;56.41;100491.63;1757047;80;21761;-79
2021/09/15 10:28:05;;;;;;;9.10;8.10;;;;;;;24.12;56.37;100486.55;1756476;80;21023;-79
2021/09/15 10:30:49;;;;;;;8.73;7.60;;;;;;;24.24;56.24;100493.25;1757132;80;20952;-79
2021/09/15 10:33:40;;;;;;;11.93;9.00;;;;;;;24.26;56.18;100485.63;1756417;80;21444;-79
2021/09/15 10:36:21;;;;;;;15.18;8.40;;;;;;;24.50;56.21;100483.39;1757133;80;20929;-79
2021/09/15 10:38:56;;;;;;;16.32;8.23;;;;;;;24.62;56.06;100485.42;1757067;81;21659;-79
2021/09/15 10:41:37;;;;;;;10.70;7.95;;;;;;;24.49;55.81;100492.67;1756839;80;20916;-79
2021/09/15 10:44:09;;;;;;;11.68;7.97;;;;;;;24.35;55.79;100482.17;1757001;80;20977;-79
2021/09/15 10:46:35;;;;;;;11.08;7.75;;;;;;;24.17;55.62;100475.72;1756959;80;21076;-78
2021/09/15 10:49:28;;;;;;;9.03;7.42;;;;;;;24.03;55.53;100482.62;1756951;80;20965;-80
2021/09/15 10:52:15;;;;;;;9.55;6.92;;;;;;;24.01;55.58;100478.52;1757176;81;21795;-79
2021/09/15 10:54:54;;;;;;;13.05;7.28;;;;;;;24.14;55.60;100478.13;1756786;80;21016;-79
2021/09/15 10:57:36;;;;;;;8.93;6.85;;;;;;;24.30;55.52;100482.14;1756458;80;21047;-79
2021/09/15 11:00:21;;;;;;;13.00;7.95;;;;;;;24.42;55.36;100480.59;1757016;80;21767;-79
2021/09/15 11:02:49;;;;;;;12.53;7.20;;;;;;;24.27;55.11;100481.30;1756895;81;21027;-79
2021/09/15 11:05:40;;;;;;;14.58;8.18;;;;;;;24.33;55.27;100482.98;1758229;81;21925;-79
2021/09/15 11:08:06;;;;;;;10.40;7.83;;;;;;;24.35;55.25;100475.35;1758366;81;20917;-79
2021/09/15 11:10:35;;;;;;;12.37;7.35;;;;;;;24.38;55.18;100469.38;1758652;80;21019;-79
2021/09/15 11:13:37;;;;;;;10.15;7.75;;;;;;;24.39;55.08;100459.30;1758623;81;20989;-79
2021/09/15 11:16:37;;;;;;;8.45;7.45;;;;;;;24.50;55.05;100447.41;1758486;80;20984;-79
2021/09/15 11:19:12;;;;;;;10.35;7.45;;;;;;;24.58;54.94;100444.74;1758698;80;21781;-79
2021/09/15 11:21:43;;;;;;;9.10;7.53;;;;;;;24.65;54.88;100442.61;1758656;80;20957;-79
2021/09/15 11:24:13;;;;;;;8.10;7.22;;;;;;;24.72;54.83;100436.39;1758520;80;20988;-79